Terminal Aerodrome Forecast
Issued by NWS Louisville, KY

Home | Current Version | Previous Version | Text Only | Print | Product List | Glossary On
Versions: 1 2 3 4 5 6 7 8 9 10 11 12 13 14
469
FTUS43 KLMK 221738 RRA
TAFBWG
TAF
KBWG 221738Z 2218/2318 25006KT P6SM -SHRA VCTS BKN035CB
      TEMPO 2218/2222 3SM -TSRA BKN025CB
     FM222300 25004KT P6SM SCT200
      TEMPO 2223/2303 BKN025
     FM230900 00000KT 3SM BR FEW030
     FM231300 05004KT P6SM FEW250=

USA.gov is the U.S. government's official web portal to all federal, state and local government web resources and services.